createdAt,value
2018-01-26T00:07:36.921Z,14.23
2018-01-26T00:17:39.209Z,13.77
2018-01-26T00:27:40.808Z,13.33
2018-01-26T00:37:42.411Z,15.10
2018-01-26T00:47:44.707Z,14.03
2018-01-26T00:57:46.232Z,11.93
2018-01-26T01:07:47.807Z,14.37
2018-01-26T01:17:49.398Z,16.50
2018-01-26T01:27:50.917Z,19.00
2018-01-26T01:37:52.479Z,15.40
2018-01-26T01:47:54.068Z,12.80
2018-01-26T01:57:55.720Z,10.30
2018-01-26T02:07:57.350Z,11.40
2018-01-26T02:17:59.607Z,12.93
2018-01-26T02:28:01.120Z,11.77
2018-01-26T02:38:02.668Z,10.63
2018-01-26T02:48:04.952Z,11.63
2018-01-26T02:58:06.470Z,11.27
2018-01-26T03:08:07.983Z,8.90
2018-01-26T03:18:09.753Z,9.30
2018-01-26T03:28:11.357Z,10.10
2018-01-26T03:38:12.862Z,8.80
2018-01-26T03:48:14.400Z,7.47
2018-01-26T03:58:16.686Z,6.07
2018-01-26T04:08:18.196Z,6.10
2018-01-26T04:18:20.527Z,8.57
2018-01-26T04:28:22.887Z,7.60
2018-01-26T04:38:24.437Z,5.93
2018-01-26T04:48:26.760Z,2.47
2018-01-26T04:58:29.060Z,1.83
2018-01-26T05:08:30.616Z,2.00
2018-01-26T05:18:32.106Z,2.20
2018-01-26T05:28:33.720Z,3.10
2018-01-26T05:38:35.259Z,2.27
2018-01-26T05:48:36.832Z,3.50
2018-01-26T05:58:38.460Z,3.77
2018-01-26T06:08:40.056Z,3.60
2018-01-26T06:18:42.359Z,3.43
2018-01-26T06:28:43.939Z,4.40
2018-01-26T06:38:45.535Z,5.13
2018-01-26T06:48:47.103Z,5.80
2018-01-26T06:58:49.361Z,4.90
2018-01-26T07:08:50.932Z,6.10
2018-01-26T07:18:52.638Z,6.53
2018-01-26T07:28:54.217Z,8.30
2018-01-26T07:38:55.758Z,9.90
2018-01-26T07:48:57.315Z,10.00
2018-01-26T07:58:59.565Z,10.10
2018-01-26T08:09:01.741Z,8.50
2018-01-26T08:19:04.021Z,9.10
2018-01-26T08:29:05.754Z,9.10
2018-01-26T08:39:07.336Z,11.30
2018-01-26T08:49:08.856Z,11.57
2018-01-26T08:59:10.397Z,13.00
2018-01-26T09:09:11.978Z,10.70
2018-01-26T09:19:13.563Z,8.00
2018-01-26T09:29:15.115Z,6.53
2018-01-26T09:39:16.653Z,6.53
2018-01-26T09:49:18.488Z,6.23
2018-01-26T09:59:20.745Z,5.67
2018-01-26T10:09:29.276Z,7.60
2018-01-26T10:19:30.795Z,7.50
2018-01-26T10:29:32.521Z,5.57
2018-01-26T10:39:34.089Z,6.10
2018-01-26T10:49:35.648Z,5.10
2018-01-26T10:59:37.176Z,4.87
2018-01-26T11:09:38.677Z,4.23
2018-01-26T11:19:40.216Z,3.90
2018-01-26T11:29:41.886Z,4.50
2018-01-26T11:39:43.462Z,3.20
2018-01-26T11:49:45.757Z,4.63
2018-01-26T11:59:47.352Z,2.50
2018-01-26T12:09:48.915Z,2.73
2018-01-26T12:19:50.448Z,2.67
2018-01-26T12:29:52.027Z,2.73
2018-01-26T12:39:53.636Z,2.97
2018-01-26T12:49:55.232Z,3.13
2018-01-26T12:59:56.838Z,2.50
2018-01-26T13:09:58.525Z,2.30
2018-01-26T13:20:00.152Z,2.60
2018-01-26T13:30:01.637Z,2.67
2018-01-26T13:40:03.212Z,2.60
2018-01-26T13:50:04.829Z,6.47
2018-01-26T14:00:06.381Z,6.47
2018-01-26T14:10:08.696Z,4.97
2018-01-26T14:20:10.395Z,4.77
2018-01-26T14:30:11.965Z,3.30
2018-01-26T14:40:13.716Z,4.27
2018-01-26T14:50:15.340Z,4.73
2018-01-26T15:00:17.153Z,4.23
2018-01-26T15:10:18.743Z,3.30
2018-01-26T15:20:20.404Z,3.40
2018-01-26T15:30:21.983Z,4.43
2018-01-26T15:40:23.588Z,4.97
2018-01-26T15:50:25.116Z,8.87
2018-01-26T16:00:26.689Z,8.60
2018-01-26T16:10:28.285Z,6.97
2018-01-26T16:20:29.824Z,5.03
2018-01-26T16:30:32.151Z,5.63
2018-01-26T16:40:34.453Z,7.53
2018-01-26T16:50:36.808Z,6.40
2018-01-26T17:00:38.360Z,8.67
2018-01-26T17:10:39.892Z,8.10
2018-01-26T17:20:41.406Z,6.60
2018-01-26T17:30:42.955Z,5.60
2018-01-26T17:40:44.513Z,8.27
2018-01-26T17:50:46.121Z,8.60
2018-01-26T18:00:48.583Z,8.80
2018-01-26T18:10:50.120Z,8.73
2018-01-26T18:20:51.668Z,10.60
2018-01-26T18:30:53.247Z,12.87
2018-01-26T18:40:54.758Z,13.30
2018-01-26T18:50:56.295Z,14.33
2018-01-26T19:00:58.611Z,13.80
2018-01-26T19:11:00.992Z,12.70
2018-01-26T19:21:02.599Z,10.70
2018-01-26T19:31:04.176Z,10.73
2018-01-26T19:41:05.839Z,13.83
2018-01-26T19:51:08.236Z,13.87
2018-01-26T20:01:09.802Z,13.10
2018-01-26T20:11:11.385Z,12.83
2018-01-26T20:21:12.964Z,11.00
2018-01-26T20:31:15.346Z,14.90
2018-01-26T20:41:17.450Z,12.60
2018-01-26T20:51:19.899Z,12.10
2018-01-26T21:01:21.566Z,12.70
2018-01-26T21:11:23.392Z,13.70
2018-01-26T21:21:25.026Z,13.40
2018-01-26T21:31:26.826Z,12.27
2018-01-26T21:41:29.119Z,13.33
2018-01-26T21:51:30.770Z,12.77
2018-01-26T22:01:32.379Z,12.93
2018-01-26T22:11:33.898Z,12.97
2018-01-26T22:21:35.524Z,16.43
2018-01-26T22:31:37.831Z,14.17
2018-01-26T22:41:39.420Z,13.80
2018-01-26T22:51:40.981Z,14.13
2018-01-26T23:01:42.554Z,13.07
2018-01-26T23:11:44.191Z,13.30
2018-01-26T23:21:45.751Z,11.40
2018-01-26T23:31:47.343Z,13.70
2018-01-26T23:41:48.964Z,12.80
2018-01-26T23:51:51.269Z,14.10
